Meteo Giornale » Osservazioni meteo Italia » Capo Bellavista

ore: 06:55 - Osservazioni Meteo Capo Bellavista
Lat. 39° 56' N Lon. 9° 43' E Alt. 138 metri s.l.m.

sereno Europe/Rome

10 °C

Sereno

Temp. 24 Ore

9 °C

17 °C

Ovest

7.4 Km/h

Dew point -2 °C

Umidità 42 %

Visibilità  10 Km

Il sole sorge alle ore 06:12

Il sole tramonta alle ore 18:40

Data e Ora Cielo e Fenomeni T °C DP °C Um. % Pres. hPa Vis. km Vento km/h
Oggi h: 06:55 sereno Sereno 10 -2 42 1019 10 O 7.4
Oggi h: 05:55 sereno Sereno 9 -2 45 1020 10 NO 16.7
Oggi h: 04:55 sereno Sereno 9 -2 45 1020 10 NO 14.8
Oggi h: 03:55 sereno Sereno 10 -2 42 1020 10 NO 14.8
Oggi h: 03:55 sereno Sereno 10 -2 42 1020 10 NO 20.3
Oggi h: 01:55 sereno Sereno 11 -1 43 1020 10 O/NO 13
Oggi h: 00:55 sereno Sereno 11 0 46 1020 10 O/NO 14.8
Ieri h: 23:55 sereno Sereno 11 1 50 1020 10 O/NO 16.7
Ieri h: 22:55 sereno Sereno 12 3 54 1020 10 O/NO 13
Ieri h: 21:55 sereno Sereno 13 5 58 1020 10 O/SO 11.1
Ieri h: 20:55 poco_nuvoloso Poco Nuvoloso 13 11 87 1019 10 O 13
Ieri h: 19:55 poco_nuvoloso Poco Nuvoloso 14 12 87 1018 10 S/SO 9.3
Ieri h: 18:55 poco_nuvoloso Poco Nuvoloso 15 10 72 1017 10 S/SE 9.3
Ieri h: 17:55 nuvoloso Nuvoloso 16 13 82 1017 10 E 13
Ieri h: 16:55 nuvoloso Nuvoloso 17 7 51 1016 10 O/NO 25.9
Ieri h: 15:55 nuvoloso Nuvoloso 16 10 67 1016 10 O 25.9
Ieri h: 14:55 nuvoloso Nuvoloso 15 13 87 1017 10 SO 27.8
Ieri h: 13:55 nuvoloso Nuvoloso 16 14 87 1017 8 S 44.4
Ieri h: 12:55 nuvoloso Nuvoloso 16 13 82 1017 8 S 24
Ieri h: 11:55 poco_nuvoloso Poco Nuvoloso 15 14 93 1018 8 S/SE 24
Ieri h: 10:55 nuvoloso Nuvoloso 15 13 87 1019 0 S/SE 22.2
Ieri h: 09:55 nuvoloso Nuvoloso 15 13 87 1019 7 SE 14.8
Ieri h: 08:55 nuvoloso Nuvoloso 14 12 87 1019 10 SE 7.4